createdAt,value
2023-02-09T00:01:36.225Z,73.50
2023-02-09T00:04:04.647Z,73.50
2023-02-09T00:06:33.466Z,73.50
2023-02-09T00:09:02.550Z,73.30
2023-02-09T00:11:50.159Z,73.50
2023-02-09T00:14:21.964Z,73.50
2023-02-09T00:16:53.076Z,73.80
2023-02-09T00:19:22.473Z,73.60
2023-02-09T00:21:50.823Z,73.60
2023-02-09T00:24:19.368Z,73.50
2023-02-09T00:26:48.223Z,73.50
2023-02-09T00:29:17.274Z,73.70
2023-02-09T00:31:45.753Z,73.80
2023-02-09T00:34:19.882Z,74.10
2023-02-09T00:36:48.276Z,74.30
2023-02-09T00:39:16.599Z,74.10
2023-02-09T00:42:02.597Z,73.90
2023-02-09T00:44:30.924Z,74.00
2023-02-09T00:46:59.245Z,74.20
2023-02-09T00:49:29.125Z,74.30
2023-02-09T00:51:57.866Z,74.20
2023-02-09T00:54:26.154Z,74.20
2023-02-09T00:56:54.424Z,74.60
2023-02-09T00:59:22.748Z,74.80
2023-02-09T01:01:51.046Z,74.80
2023-02-09T01:04:19.404Z,74.90
2023-02-09T01:06:49.198Z,74.80
2023-02-09T01:09:17.470Z,74.80
2023-02-09T01:11:45.771Z,74.80
2023-02-09T01:14:14.073Z,74.10
2023-02-09T01:16:42.420Z,74.00
2023-02-09T01:19:13.898Z,73.80
2023-02-09T01:21:43.771Z,73.60
2023-02-09T01:24:16.096Z,73.30
2023-02-09T01:26:44.455Z,73.00
2023-02-09T01:29:15.228Z,72.80
2023-02-09T01:31:44.008Z,72.60
2023-02-09T01:34:15.058Z,72.50
2023-02-09T01:36:44.154Z,72.20
2023-02-09T01:39:14.714Z,71.90
2023-02-09T01:41:43.695Z,71.60
2023-02-09T01:44:59.904Z,71.60
2023-02-09T01:47:28.236Z,71.40
2023-02-09T01:49:56.766Z,71.00
2023-02-09T01:52:29.232Z,70.70
2023-02-09T01:55:02.533Z,70.70
2023-02-09T01:57:34.175Z,70.10
2023-02-09T02:00:06.689Z,70.10
2023-02-09T02:02:35.230Z,70.10
2023-02-09T02:05:04.135Z,69.80
2023-02-09T02:07:39.891Z,69.70
2023-02-09T02:10:10.977Z,69.50
2023-02-09T02:12:40.441Z,69.40
2023-02-09T02:15:09.726Z,69.20
2023-02-09T02:17:54.045Z,69.00
2023-02-09T02:21:10.184Z,68.90
2023-02-09T02:23:48.536Z,68.80
2023-02-09T02:26:49.833Z,68.50
2023-02-09T02:29:45.417Z,68.40
2023-02-09T02:32:27.774Z,68.40
2023-02-09T02:35:02.470Z,68.50
2023-02-09T02:37:52.469Z,68.00
2023-02-09T02:40:29.429Z,67.70
2023-02-09T02:43:07.981Z,67.30
2023-02-09T02:45:57.278Z,67.30
2023-02-09T02:48:34.436Z,67.50
2023-02-09T02:51:07.010Z,66.90
2023-02-09T02:53:38.075Z,67.10
2023-02-09T02:56:11.653Z,67.20
2023-02-09T02:58:42.530Z,67.20
2023-02-09T03:01:14.356Z,67.20
2023-02-09T03:03:46.581Z,67.10
2023-02-09T03:06:15.592Z,67.00
2023-02-09T03:08:51.644Z,67.00
2023-02-09T03:11:22.428Z,67.00
2023-02-09T03:14:11.620Z,66.90
2023-02-09T03:16:45.641Z,66.90
2023-02-09T03:19:26.484Z,66.90
2023-02-09T03:21:59.329Z,66.90
2023-02-09T03:24:36.914Z,66.90
2023-02-09T03:27:19.943Z,66.90
2023-02-09T03:29:51.565Z,67.00
2023-02-09T03:32:21.291Z,67.00
2023-02-09T03:34:52.762Z,67.00
2023-02-09T03:37:21.139Z,67.20
2023-02-09T03:39:49.557Z,67.30
2023-02-09T03:42:17.897Z,67.40
2023-02-09T03:44:46.271Z,67.50
2023-02-09T03:47:14.697Z,67.90
2023-02-09T03:49:45.588Z,68.00
2023-02-09T03:52:17.000Z,68.10
2023-02-09T03:54:45.388Z,68.00
2023-02-09T03:57:13.723Z,68.00
2023-02-09T03:59:42.138Z,68.00
2023-02-09T04:02:11.615Z,68.10
2023-02-09T04:04:39.948Z,68.30
2023-02-09T04:07:08.331Z,68.30
2023-02-09T04:09:38.708Z,68.20
2023-02-09T04:12:07.692Z,68.20
2023-02-09T04:14:36.061Z,68.30
2023-02-09T04:17:04.440Z,68.20
2023-02-09T04:19:32.696Z,68.30
2023-02-09T04:22:01.529Z,68.30
2023-02-09T04:24:29.985Z,68.20
2023-02-09T04:26:59.698Z,68.20
2023-02-09T04:29:28.467Z,68.20
2023-02-09T04:31:57.078Z,68.40
2023-02-09T04:34:25.604Z,68.60
2023-02-09T04:36:53.887Z,68.80
2023-02-09T04:39:22.237Z,69.60
2023-02-09T04:41:50.538Z,69.70
2023-02-09T04:44:20.297Z,69.40
2023-02-09T04:46:48.616Z,69.30
2023-02-09T04:49:16.961Z,69.10
2023-02-09T04:51:45.262Z,69.40
2023-02-09T04:54:13.555Z,70.00
2023-02-09T04:56:41.865Z,70.30
2023-02-09T04:59:28.302Z,70.50
2023-02-09T05:01:57.997Z,70.80
2023-02-09T05:04:26.261Z,70.80
2023-02-09T05:06:54.576Z,71.60
2023-02-09T05:09:22.852Z,71.90
2023-02-09T05:11:51.106Z,71.60
2023-02-09T05:14:19.425Z,71.90
2023-02-09T05:16:47.858Z,71.90
2023-02-09T05:19:17.620Z,72.10
2023-02-09T05:21:45.921Z,71.90
2023-02-09T05:24:14.270Z,72.20
2023-02-09T05:26:42.556Z,72.80
2023-02-09T05:29:11.018Z,72.50
2023-02-09T05:31:39.503Z,72.30
2023-02-09T05:34:07.816Z,72.10
2023-02-09T05:36:37.530Z,71.90
2023-02-09T05:39:05.844Z,72.00
2023-02-09T05:41:51.182Z,72.40
2023-02-09T05:44:19.456Z,72.10
2023-02-09T05:46:47.739Z,72.00
2023-02-09T05:49:16.027Z,72.10
2023-02-09T05:51:45.650Z,72.10
2023-02-09T05:54:15.266Z,72.10
2023-02-09T05:56:43.531Z,72.20
2023-02-09T05:59:11.992Z,72.10
2023-02-09T06:01:40.668Z,71.90
2023-02-09T06:04:09.829Z,71.90
2023-02-09T06:06:38.142Z,72.00
2023-02-09T06:09:08.010Z,72.10
2023-02-09T06:11:36.826Z,72.10
2023-02-09T06:14:05.530Z,72.20
2023-02-09T06:16:34.043Z,72.20
2023-02-09T06:19:02.346Z,72.40
2023-02-09T06:21:30.695Z,72.40
2023-02-09T06:23:58.964Z,72.70
2023-02-09T06:26:28.698Z,72.70
2023-02-09T06:28:57.009Z,72.70
2023-02-09T06:31:25.387Z,72.70
2023-02-09T06:33:53.779Z,72.70
2023-02-09T06:36:22.177Z,73.00
2023-02-09T06:38:50.397Z,73.00
2023-02-09T06:41:18.822Z,73.60
2023-02-09T06:43:48.534Z,73.40
2023-02-09T06:46:16.978Z,73.40
2023-02-09T06:48:45.428Z,73.50
2023-02-09T06:51:15.893Z,73.60
2023-02-09T06:53:44.930Z,73.70
2023-02-09T06:56:14.287Z,73.70
2023-02-09T06:58:42.785Z,73.70
2023-02-09T07:01:16.088Z,73.70
2023-02-09T07:03:45.451Z,73.40
2023-02-09T07:06:15.452Z,73.30
2023-02-09T07:08:44.482Z,73.50
2023-02-09T07:11:16.574Z,73.60
2023-02-09T07:13:45.993Z,73.10
2023-02-09T07:16:16.383Z,73.00
2023-02-09T07:18:44.896Z,72.80
2023-02-09T07:21:18.560Z,72.50
2023-02-09T07:23:47.495Z,72.40
2023-02-09T07:26:18.758Z,72.20
2023-02-09T07:28:47.404Z,72.10
2023-02-09T07:31:17.826Z,71.90
2023-02-09T07:38:06.858Z,71.20
2023-02-09T07:40:35.342Z,70.20
2023-02-09T07:43:03.625Z,70.00
2023-02-09T07:45:32.034Z,69.80
2023-02-09T07:48:01.840Z,69.70
2023-02-09T07:50:30.168Z,69.10
2023-02-09T07:52:58.601Z,68.80
2023-02-09T07:55:26.916Z,68.50
2023-02-09T07:57:55.276Z,67.20
2023-02-09T08:00:24.425Z,66.90
2023-02-09T08:02:52.894Z,65.00
2023-02-09T08:05:36.574Z,66.10
2023-02-09T08:08:17.149Z,66.10
2023-02-09T08:10:45.708Z,66.10
2023-02-09T08:13:15.572Z,64.70
2023-02-09T08:15:46.930Z,63.60
2023-02-09T08:18:18.483Z,64.70
2023-02-09T08:20:50.228Z,64.80
2023-02-09T08:23:24.740Z,62.70
2023-02-09T08:25:53.334Z,63.40
2023-02-09T08:28:31.889Z,64.10
2023-02-09T08:31:06.916Z,64.40
2023-02-09T08:33:35.184Z,64.70
2023-02-09T08:36:05.232Z,64.60
2023-02-09T08:38:35.031Z,64.50
2023-02-09T08:41:05.683Z,64.10
2023-02-09T08:43:34.467Z,63.30
2023-02-09T08:46:34.971Z,61.90
2023-02-09T08:49:03.310Z,60.00
2023-02-09T08:51:33.016Z,59.70
2023-02-09T08:54:01.284Z,60.20
2023-02-09T08:59:43.973Z,58.70
2023-02-09T09:02:12.302Z,59.30
2023-02-09T09:04:40.545Z,60.20
2023-02-09T09:07:10.277Z,59.70
2023-02-09T09:09:38.699Z,59.90
2023-02-09T09:12:07.170Z,60.80
2023-02-09T09:14:35.624Z,60.80
2023-02-09T09:17:04.150Z,60.80
2023-02-09T09:19:32.411Z,60.50
2023-02-09T09:22:03.587Z,59.90
2023-02-09T09:24:35.054Z,58.90
2023-02-09T09:27:03.377Z,59.70
2023-02-09T09:29:34.260Z,58.80
2023-02-09T09:32:02.662Z,59.00
2023-02-09T09:34:31.231Z,59.00
2023-02-09T09:36:59.563Z,57.30
2023-02-09T09:39:28.012Z,57.40
2023-02-09T09:42:00.765Z,57.20
2023-02-09T09:44:32.692Z,57.80
2023-02-09T09:47:07.429Z,58.10
2023-02-09T09:49:38.618Z,57.20
2023-02-09T09:52:10.446Z,57.70
2023-02-09T09:54:39.305Z,58.30
2023-02-09T09:57:37.867Z,58.30
2023-02-09T10:00:14.028Z,58.90
2023-02-09T10:02:42.360Z,58.10
2023-02-09T10:05:18.336Z,57.40
2023-02-09T10:07:52.673Z,57.60
2023-02-09T10:10:28.227Z,57.70
2023-02-09T10:13:00.289Z,57.70
2023-02-09T10:15:30.556Z,57.90
2023-02-09T10:18:00.252Z,57.70
2023-02-09T10:20:47.853Z,57.40
2023-02-09T10:23:43.338Z,57.80
2023-02-09T10:26:25.054Z,57.90
2023-02-09T10:28:56.153Z,57.20
2023-02-09T10:31:27.431Z,56.70
2023-02-09T10:34:03.095Z,56.90
2023-02-09T10:36:34.964Z,57.50
2023-02-09T10:39:18.102Z,56.80
2023-02-09T10:41:49.319Z,56.40
2023-02-09T10:44:22.668Z,56.60
2023-02-09T10:46:51.400Z,56.30
2023-02-09T10:49:35.337Z,56.40
2023-02-09T10:52:17.536Z,56.50
2023-02-09T10:54:49.068Z,56.00
2023-02-09T10:57:39.858Z,55.50
2023-02-09T11:00:28.945Z,55.30
2023-02-09T11:03:01.893Z,55.30
2023-02-09T11:05:35.129Z,53.60
2023-02-09T11:08:13.909Z,53.10
2023-02-09T11:10:46.495Z,53.20
2023-02-09T11:13:25.607Z,53.30
2023-02-09T11:16:22.108Z,52.40
2023-02-09T11:19:48.223Z,52.60
2023-02-09T11:22:28.657Z,53.20
2023-02-09T11:25:07.606Z,54.00
2023-02-09T11:27:52.842Z,53.70
2023-02-09T11:30:32.460Z,52.90
2023-02-09T11:33:08.081Z,52.80
2023-02-09T11:35:45.959Z,53.00
2023-02-09T11:38:18.754Z,52.60
2023-02-09T11:40:52.187Z,53.30
2023-02-09T11:43:26.637Z,53.00
2023-02-09T11:45:58.214Z,53.00
2023-02-09T11:48:31.581Z,53.30
2023-02-09T11:51:04.647Z,53.40
2023-02-09T11:53:43.745Z,53.20
2023-02-09T11:56:15.076Z,52.90
2023-02-09T11:58:56.109Z,53.20
2023-02-09T12:01:32.492Z,53.20
2023-02-09T12:04:11.935Z,53.00
2023-02-09T12:06:42.682Z,53.10
2023-02-09T12:09:43.622Z,53.10
2023-02-09T12:12:23.300Z,52.90
2023-02-09T12:15:05.556Z,53.40
2023-02-09T12:24:34.919Z,52.10
2023-02-09T12:27:03.312Z,52.80
2023-02-09T12:29:40.068Z,52.60
2023-02-09T12:32:25.602Z,52.40
2023-02-09T12:34:56.779Z,52.30
2023-02-09T12:37:29.001Z,52.60
2023-02-09T12:40:25.368Z,51.80
2023-02-09T12:43:27.256Z,51.30
2023-02-09T12:46:24.476Z,51.10
2023-02-09T12:49:03.260Z,51.30
2023-02-09T12:52:04.141Z,51.30
2023-02-09T12:54:38.004Z,52.10
2023-02-09T12:57:54.462Z,52.10
2023-02-09T13:00:54.046Z,52.40
2023-02-09T13:03:24.509Z,52.60
2023-02-09T13:05:57.326Z,49.40
2023-02-09T13:08:46.828Z,50.40
2023-02-09T13:11:27.100Z,49.80
2023-02-09T13:13:58.912Z,50.30
2023-02-09T13:16:55.257Z,50.40
2023-02-09T13:19:58.968Z,50.90
2023-02-09T13:22:34.204Z,50.50
2023-02-09T13:25:14.260Z,50.50
2023-02-09T13:27:49.139Z,50.80
2023-02-09T13:30:27.888Z,51.40
2023-02-09T13:33:04.980Z,49.70
2023-02-09T13:35:39.441Z,50.80
2023-02-09T13:38:17.156Z,50.50
2023-02-09T13:40:49.672Z,48.90
2023-02-09T13:43:30.503Z,48.80
2023-02-09T13:46:00.383Z,48.10
2023-02-09T13:48:30.989Z,44.30
2023-02-09T13:51:00.982Z,43.20
2023-02-09T13:53:30.857Z,42.60
2023-02-09T13:56:00.606Z,42.50
2023-02-09T13:58:33.192Z,43.10
2023-02-09T14:01:05.459Z,43.50
2023-02-09T14:03:40.870Z,41.70
2023-02-09T14:06:19.161Z,38.10
2023-02-09T14:08:49.344Z,36.10
2023-02-09T14:11:41.499Z,36.10
2023-02-09T14:14:17.425Z,35.70
2023-02-09T14:16:53.467Z,36.00
2023-02-09T14:19:28.370Z,35.50
2023-02-09T14:21:56.811Z,36.70
2023-02-09T14:24:25.814Z,36.50
2023-02-09T14:26:56.834Z,36.30
2023-02-09T14:29:29.222Z,37.20
2023-02-09T14:31:59.517Z,37.20
2023-02-09T14:34:35.291Z,37.70
2023-02-09T14:37:06.134Z,38.20
2023-02-09T14:39:34.449Z,37.60
2023-02-09T14:42:17.790Z,37.80
2023-02-09T14:44:56.572Z,38.70
2023-02-09T14:47:40.490Z,39.20
2023-02-09T14:50:13.724Z,39.80
2023-02-09T14:52:46.765Z,40.10
2023-02-09T14:55:18.649Z,40.50
2023-02-09T14:57:49.113Z,40.70
2023-02-09T15:00:21.376Z,41.00
2023-02-09T15:02:50.414Z,41.70
2023-02-09T15:05:19.394Z,41.70
2023-02-09T15:07:51.054Z,42.00
2023-02-09T15:10:33.791Z,42.30
2023-02-09T15:13:04.155Z,42.90
2023-02-09T15:15:37.667Z,43.40
2023-02-09T15:18:06.099Z,43.90
2023-02-09T15:20:34.860Z,44.20
2023-02-09T15:23:03.176Z,44.70
2023-02-09T15:25:31.564Z,45.00
2023-02-09T15:28:01.365Z,45.40
2023-02-09T15:30:34.520Z,45.70
2023-02-09T15:33:03.590Z,45.90
2023-02-09T15:35:31.933Z,47.10
2023-02-09T15:38:01.704Z,46.50
2023-02-09T15:40:50.012Z,46.60
2023-02-09T15:43:37.829Z,46.90
2023-02-09T15:46:25.758Z,47.10
2023-02-09T15:48:54.085Z,47.30
2023-02-09T15:51:23.131Z,47.80
2023-02-09T15:53:52.290Z,48.00
2023-02-09T15:56:20.665Z,48.20
2023-02-09T15:58:52.315Z,48.30
2023-02-09T16:01:22.281Z,48.80
2023-02-09T16:03:50.624Z,49.00
2023-02-09T16:06:22.535Z,49.20
2023-02-09T16:08:53.324Z,49.20
2023-02-09T16:11:23.525Z,49.40
2023-02-09T16:13:52.158Z,49.50
2023-02-09T16:16:24.750Z,49.70
2023-02-09T16:18:53.380Z,49.80
2023-02-09T16:21:25.102Z,49.80
2023-02-09T16:23:55.638Z,50.20
2023-02-09T16:26:24.804Z,50.20
2023-02-09T16:29:20.596Z,50.40
2023-02-09T16:31:50.447Z,50.50
2023-02-09T16:34:18.777Z,50.50
2023-02-09T16:36:55.869Z,50.50
2023-02-09T16:39:24.112Z,50.70
2023-02-09T16:41:52.927Z,50.70
2023-02-09T16:44:23.621Z,50.70
2023-02-09T16:46:55.325Z,50.90
2023-02-09T16:49:33.006Z,51.00
2023-02-09T16:52:07.167Z,51.10
2023-02-09T16:54:42.680Z,51.10
2023-02-09T16:57:15.954Z,51.10
2023-02-09T16:59:44.466Z,51.20
2023-02-09T17:02:33.774Z,51.30
2023-02-09T17:05:03.559Z,51.30
2023-02-09T17:07:45.474Z,51.40
2023-02-09T17:10:23.827Z,51.70
2023-02-09T17:12:54.976Z,52.00
2023-02-09T17:15:30.690Z,52.10
2023-02-09T17:18:18.751Z,52.10
2023-02-09T17:20:51.667Z,52.10
2023-02-09T17:23:23.421Z,52.40
2023-02-09T17:25:55.066Z,52.50
2023-02-09T17:28:24.195Z,52.60
2023-02-09T17:30:55.903Z,52.70
2023-02-09T17:33:28.115Z,52.90
2023-02-09T17:36:24.754Z,53.00
2023-02-09T17:38:46.558Z,53.20
2023-02-09T17:41:17.278Z,53.20
2023-02-09T17:43:45.662Z,53.30
2023-02-09T17:46:16.400Z,53.30
2023-02-09T17:48:46.532Z,53.30
2023-02-09T17:51:21.237Z,53.40
2023-02-09T17:53:50.059Z,53.60
2023-02-09T17:56:19.416Z,53.60
2023-02-09T17:58:48.294Z,53.70
2023-02-09T18:01:26.902Z,53.70
2023-02-09T18:03:58.953Z,53.70
2023-02-09T18:06:34.375Z,53.80
2023-02-09T18:09:03.752Z,53.70
2023-02-09T18:11:56.772Z,53.60
2023-02-09T18:14:26.465Z,53.60
2023-02-09T18:16:56.642Z,53.70
2023-02-09T18:19:27.171Z,53.70
2023-02-09T18:21:58.064Z,53.80
2023-02-09T18:24:29.544Z,53.80
2023-02-09T18:26:58.016Z,54.00
2023-02-09T18:29:29.472Z,54.20
2023-02-09T18:31:58.759Z,54.00
2023-02-09T18:34:29.252Z,54.00
2023-02-09T18:36:57.699Z,54.10
2023-02-09T18:39:25.992Z,54.10
2023-02-09T18:41:55.291Z,54.40
2023-02-09T18:44:28.877Z,54.50
2023-02-09T18:46:57.986Z,54.60
2023-02-09T18:49:27.842Z,54.60
2023-02-09T18:51:58.940Z,54.70
2023-02-09T18:54:28.924Z,54.70
2023-02-09T18:56:58.159Z,55.00
2023-02-09T18:59:29.804Z,55.00
2023-02-09T19:01:58.717Z,55.20
2023-02-09T19:04:28.493Z,55.20
2023-02-09T19:06:56.773Z,56.10
2023-02-09T19:09:25.043Z,55.70
2023-02-09T19:11:53.327Z,55.70
2023-02-09T19:14:39.530Z,55.80
2023-02-09T19:17:09.296Z,56.20
2023-02-09T19:19:39.365Z,56.40
2023-02-09T19:22:07.702Z,56.60
2023-02-09T19:24:36.306Z,56.80
2023-02-09T19:27:06.853Z,56.90
2023-02-09T19:29:35.317Z,56.90
2023-02-09T19:32:05.294Z,56.90
2023-02-09T19:34:35.256Z,56.90
2023-02-09T19:37:05.576Z,57.00
2023-02-09T19:39:35.236Z,57.10
2023-02-09T19:42:03.557Z,57.30
2023-02-09T19:44:32.311Z,57.50
2023-02-09T19:47:00.636Z,57.50
2023-02-09T19:49:29.466Z,57.60
2023-02-09T19:51:57.690Z,57.60
2023-02-09T19:54:27.310Z,57.70
2023-02-09T19:56:55.549Z,57.90
2023-02-09T19:59:23.891Z,57.80
2023-02-09T20:01:52.209Z,58.00
2023-02-09T20:04:20.484Z,58.00
2023-02-09T20:06:48.748Z,58.10
2023-02-09T20:09:17.292Z,58.10
2023-02-09T20:11:47.071Z,58.10
2023-02-09T20:14:15.365Z,58.20
2023-02-09T20:16:43.705Z,58.20
2023-02-09T20:19:12.044Z,58.30
2023-02-09T20:21:42.866Z,58.40
2023-02-09T20:24:13.076Z,58.50
2023-02-09T20:26:42.105Z,58.80
2023-02-09T20:29:12.338Z,58.90
2023-02-09T20:31:42.759Z,59.10
2023-02-09T20:34:13.635Z,59.20
2023-02-09T20:36:44.757Z,59.40
2023-02-09T20:39:16.125Z,59.30
2023-02-09T20:42:05.736Z,59.80
2023-02-09T20:44:53.268Z,60.00
2023-02-09T20:47:21.856Z,59.90
2023-02-09T20:49:50.345Z,60.00
2023-02-09T20:52:18.916Z,59.90
2023-02-09T20:54:47.186Z,59.90
2023-02-09T20:57:15.494Z,60.00
2023-02-09T20:59:45.246Z,60.60
2023-02-09T21:02:15.226Z,60.70
2023-02-09T21:04:43.822Z,61.30
2023-02-09T21:07:12.090Z,61.40
2023-02-09T21:09:40.372Z,61.40
2023-02-09T21:12:08.948Z,61.40
2023-02-09T21:14:42.089Z,61.40
2023-02-09T21:17:13.320Z,62.50
2023-02-09T21:19:42.053Z,62.50
2023-02-09T21:22:10.453Z,62.60
2023-02-09T21:24:39.246Z,63.10
2023-02-09T21:27:08.269Z,63.20
2023-02-09T21:29:37.305Z,63.30
2023-02-09T21:32:07.599Z,63.40
2023-02-09T21:34:37.302Z,63.50
2023-02-09T21:37:07.967Z,63.40
2023-02-09T21:39:36.305Z,63.90
2023-02-09T21:42:22.217Z,64.20
2023-02-09T21:44:50.600Z,64.20
2023-02-09T21:47:19.010Z,64.20
2023-02-09T21:49:49.904Z,64.10
2023-02-09T21:52:18.295Z,64.10
2023-02-09T21:54:46.612Z,64.10
2023-02-09T21:57:14.912Z,64.10
2023-02-09T21:59:43.327Z,64.30
2023-02-09T22:02:15.502Z,64.30
2023-02-09T22:04:44.253Z,64.60
2023-02-09T22:07:15.257Z,65.10
2023-02-09T22:09:43.590Z,64.80
2023-02-09T22:12:11.816Z,64.70
2023-02-09T22:14:40.124Z,64.80
2023-02-09T22:17:08.385Z,65.00
2023-02-09T22:19:38.329Z,65.10
2023-02-09T22:22:06.646Z,65.40
2023-02-09T22:24:36.667Z,65.40
2023-02-09T22:27:05.815Z,65.80
2023-02-09T22:29:34.631Z,66.10
2023-02-09T22:32:02.942Z,66.10
2023-02-09T22:34:31.286Z,65.80
2023-02-09T22:36:59.580Z,65.70
2023-02-09T22:39:27.915Z,66.40
2023-02-09T22:41:59.624Z,66.40
2023-02-09T22:44:30.183Z,66.30
2023-02-09T22:46:58.615Z,66.20
2023-02-09T22:49:26.888Z,66.30
2023-02-09T22:51:55.199Z,66.00
2023-02-09T22:54:23.476Z,66.30
2023-02-09T22:56:52.048Z,66.40
2023-02-09T22:59:21.745Z,66.60
2023-02-09T23:01:50.190Z,66.60
2023-02-09T23:04:18.585Z,66.70
2023-02-09T23:06:47.395Z,66.70
2023-02-09T23:09:16.219Z,66.70
2023-02-09T23:11:45.201Z,66.60
2023-02-09T23:14:14.090Z,66.80
2023-02-09T23:16:45.302Z,67.00
2023-02-09T23:19:16.206Z,67.00
2023-02-09T23:21:46.431Z,66.90
2023-02-09T23:24:16.855Z,66.80
2023-02-09T23:26:45.301Z,66.70
2023-02-09T23:29:16.075Z,67.00
2023-02-09T23:31:47.484Z,67.00
2023-02-09T23:34:18.204Z,67.10
2023-02-09T23:36:46.499Z,67.00
2023-02-09T23:39:16.727Z,67.20
2023-02-09T23:41:45.153Z,67.40
2023-02-09T23:44:13.791Z,67.30
2023-02-09T23:46:42.220Z,67.20
2023-02-09T23:49:12.687Z,67.30
2023-02-09T23:51:40.985Z,67.20
2023-02-09T23:54:09.385Z,67.00
2023-02-09T23:56:40.719Z,67.00
2023-02-09T23:59:13.069Z,67.20
